La Grande, Oregon
Current Conditions -  °F | °C
As of 12:35 PM on Sunday 21 Dec 2014 (Local Time) from KLGD Reporting Station
Overcast Overcast  
Wind Chill: 41°   Ceiling: 10000
Heat Index: 46°   Visibility: 10mi
Dew Point: 32°   Wind: 12mph
Humidity: 57%   Direction: 290°WNW
Pressure: 29.95"   Gusts: 17mph
Location:  45.33°N, 118.09°W
Report Text: KLGD 212035Z AUTO 29010G15KT 10SM OVC100 08/00 A2995 RMK AO1
Loading
Personal Weather Stations






























Interactive Weather Map New forecast layout! Learn more

10-Day Weather Forecast

Advertisements
Track Severe Weather on mobile